Time;durP1;ratioP1;P1;durP2;ratioP2;P2;SDS_P1;SDS_P2;PMS_P1;PMS_P2;Temp;Humidity;BMP_temperature;BMP_pressure;BME280_temperature;BME280_humidity;BME280_pressure;Samples;Min_cycle;Max_cycle;Signal;HPM_P1;HPM_P2
2023/06/19 00:00:02;;;;;;;12.20;8.60;;;;;;;18.86;82.12;99226.34;5031413;28;20029;-74
2023/06/19 00:02:28;;;;;;;10.70;8.05;;;;;;;18.86;82.32;99242.53;5030649;28;20037;-74
2023/06/19 00:04:53;;;;;;;9.60;8.27;;;;;;;18.87;82.49;99238.47;5030093;28;20076;-74
2023/06/19 00:07:20;;;;;;;10.70;8.52;;;;;;;18.80;83.14;99242.91;5013385;28;20404;-74
2023/06/19 00:09:46;;;;;;;14.32;8.30;;;;;;;18.73;82.93;99237.19;5013928;28;20069;-74
2023/06/19 00:12:11;;;;;;;8.68;7.72;;;;;;;18.66;83.21;99237.19;5030738;28;20021;-74
2023/06/19 00:14:37;;;;;;;10.07;9.07;;;;;;;18.65;83.30;99239.19;5031608;28;20083;-74
2023/06/19 00:17:02;;;;;;;9.68;8.68;;;;;;;18.62;83.40;99239.16;5012656;28;20017;-74
2023/06/19 00:19:28;;;;;;;11.63;8.30;;;;;;;18.53;83.91;99233.84;5027487;28;20108;-74
2023/06/19 00:21:57;;;;;;;10.52;9.20;;;;;;;18.55;83.93;99233.47;5029014;28;20029;-75
2023/06/19 00:24:23;;;;;;;10.95;8.40;;;;;;;18.50;84.26;99235.44;5030958;28;20112;-74
2023/06/19 00:26:48;;;;;;;9.00;8.00;;;;;;;18.47;84.30;99233.41;5011502;28;20403;-74
2023/06/19 00:29:14;;;;;;;11.38;8.82;;;;;;;18.43;84.47;99234.59;5029184;28;20044;-75
2023/06/19 00:31:39;;;;;;;12.18;8.68;;;;;;;18.46;84.32;99240.28;5029665;28;20139;-75
2023/06/19 00:34:05;;;;;;;10.85;8.50;;;;;;;18.47;84.34;99232.63;5028113;28;20407;-74
2023/06/19 00:36:30;;;;;;;11.15;8.07;;;;;;;18.48;84.22;99237.06;5010328;28;20063;-75
2023/06/19 00:38:56;;;;;;;11.95;9.43;;;;;;;18.44;84.45;99244.72;5028216;28;20025;-75
2023/06/19 00:41:22;;;;;;;13.77;8.50;;;;;;;18.40;84.56;99252.38;5028755;28;20400;-74
2023/06/19 00:43:48;;;;;;;10.40;8.13;;;;;;;18.40;84.75;99249.53;5028627;28;20107;-74
2023/06/19 00:46:13;;;;;;;12.15;8.65;;;;;;;18.40;84.42;99250.34;5028982;28;20102;-74
2023/06/19 00:48:39;;;;;;;9.90;8.63;;;;;;;18.42;84.44;99241.47;5029620;28;20060;-74
2023/06/19 00:51:05;;;;;;;12.00;8.57;;;;;;;18.42;84.36;99249.97;5012894;28;20393;-74
2023/06/19 00:53:32;;;;;;;12.35;9.00;;;;;;;18.43;84.43;99252.41;5030084;28;20021;-74
2023/06/19 00:55:59;;;;;;;10.60;7.60;;;;;;;18.41;84.53;99251.16;5012545;28;20121;-74
2023/06/19 00:58:25;;;;;;;8.70;7.80;;;;;;;18.37;84.59;99254.78;5012723;28;20029;-74
2023/06/19 01:00:50;;;;;;;12.23;8.93;;;;;;;18.34;84.77;99254.75;5030947;28;20032;-75
2023/06/19 01:03:16;;;;;;;9.40;8.38;;;;;;;18.33;84.75;99251.09;5029701;28;20447;-75
2023/06/19 01:05:42;;;;;;;9.70;8.23;;;;;;;18.27;84.87;99249.03;5007875;28;20072;-74
2023/06/19 01:08:22;;;;;;;12.07;9.02;;;;;;;18.30;84.83;99248.28;5009892;28;20032;-74
2023/06/19 01:10:53;;;;;;;13.18;8.18;;;;;;;18.20;84.99;99239.31;5011232;28;20026;-75
2023/06/19 01:13:30;;;;;;;10.07;9.07;;;;;;;18.24;84.96;99245.78;5009954;28;20022;-75
2023/06/19 01:15:57;;;;;;;11.63;9.35;;;;;;;18.21;85.07;99251.41;5010549;28;20566;-75
2023/06/19 01:18:24;;;;;;;10.85;8.50;;;;;;;18.16;85.37;99237.66;5010037;28;20025;-75
2023/06/19 01:20:50;;;;;;;11.70;8.38;;;;;;;18.16;85.26;99244.13;5011024;28;20064;-75
2023/06/19 01:23:15;;;;;;;9.68;7.95;;;;;;;18.15;85.21;99253.00;5008330;28;20026;-75
2023/06/19 01:25:41;;;;;;;8.60;7.80;;;;;;;18.05;85.89;99243.22;5009859;28;20018;-75
2023/06/19 01:28:11;;;;;;;15.65;8.45;;;;;;;18.03;85.69;99251.28;5009291;28;20440;-75
2023/06/19 01:30:38;;;;;;;9.43;8.25;;;;;;;18.01;85.76;99248.00;5009590;28;20057;-75
2023/06/19 01:33:18;;;;;;;12.18;8.43;;;;;;;17.96;86.28;99246.34;5009195;28;20030;-74
2023/06/19 01:35:46;;;;;;;15.40;8.82;;;;;;;17.94;86.34;99249.59;5009251;28;20030;-75
2023/06/19 01:38:13;;;;;;;15.35;7.57;;;;;;;18.02;85.98;99250.44;5011193;28;20416;-75
2023/06/19 01:40:40;;;;;;;21.77;8.20;;;;;;;18.01;85.78;99250.81;5013412;28;20036;-75
2023/06/19 01:43:07;;;;;;;10.65;7.85;;;;;;;18.02;85.62;99241.13;5012591;28;20400;-74
2023/06/19 01:45:33;;;;;;;13.05;7.75;;;;;;;17.96;85.78;99238.69;5014129;28;20030;-75
2023/06/19 01:47:58;;;;;;;12.77;8.20;;;;;;;18.03;85.51;99246.44;5013994;28;20397;-75
2023/06/19 01:50:24;;;;;;;9.50;7.68;;;;;;;18.01;85.71;99248.81;5014458;28;20033;-75
2023/06/19 01:52:50;;;;;;;18.48;8.55;;;;;;;18.10;85.25;99240.84;5012509;28;20125;-75
2023/06/19 01:55:16;;;;;;;8.50;7.55;;;;;;;18.13;85.02;99235.59;5013598;28;20026;-75
2023/06/19 01:57:42;;;;;;;11.63;8.05;;;;;;;18.08;84.99;99234.75;5012608;28;20036;-75
2023/06/19 02:00:07;;;;;;;10.57;8.02;;;;;;;18.07;85.37;99238.00;5013044;28;20029;-75
2023/06/19 02:02:34;;;;;;;11.65;7.93;;;;;;;18.05;85.20;99249.69;5011790;28;20124;-75
2023/06/19 02:04:59;;;;;;;17.83;8.50;;;;;;;18.03;85.22;99246.44;5025826;28;20524;-75
2023/06/19 02:07:25;;;;;;;11.68;8.15;;;;;;;17.97;85.57;99250.78;5014792;28;20059;-75
2023/06/19 02:09:50;;;;;;;15.15;8.68;;;;;;;17.99;86.08;99245.59;5015171;28;20475;-75
2023/06/19 02:12:15;;;;;;;13.70;8.27;;;;;;;17.95;85.71;99242.72;5033949;28;20018;-75
2023/06/19 02:14:41;;;;;;;11.27;8.60;;;;;;;17.88;85.94;99245.47;5032968;28;20021;-75
2023/06/19 02:17:07;;;;;;;11.48;8.18;;;;;;;17.90;85.88;99250.75;5015457;28;20029;-75
2023/06/19 02:19:32;;;;;;;11.73;8.80;;;;;;;17.91;85.87;99249.53;5016105;28;20566;-75
2023/06/19 02:21:57;;;;;;;10.30;8.27;;;;;;;17.89;86.12;99258.41;5032894;28;20021;-75
2023/06/19 02:24:23;;;;;;;10.23;8.48;;;;;;;17.87;86.34;99254.38;5015297;28;20029;-75
2023/06/19 02:26:48;;;;;;;10.30;7.20;;;;;;;17.78;86.55;99254.66;5033002;28;20115;-75
2023/06/19 02:29:14;;;;;;;12.00;8.63;;;;;;;17.78;87.03;99257.50;5031729;28;20029;-75
2023/06/19 02:31:40;;;;;;;9.20;7.88;;;;;;;17.73;86.96;99255.81;5033370;28;20411;-75
2023/06/19 02:34:05;;;;;;;11.60;7.93;;;;;;;17.72;87.15;99265.53;5033086;28;20021;-75
2023/06/19 02:36:31;;;;;;;9.50;8.50;;;;;;;17.63;87.87;99265.84;5013848;28;20048;-75
2023/06/19 02:38:56;;;;;;;12.68;8.80;;;;;;;17.58;88.23;99259.72;5033510;28;20496;-75
2023/06/19 02:41:22;;;;;;;9.98;8.30;;;;;;;17.51;88.48;99269.78;5033288;28;20029;-75
2023/06/19 02:43:48;;;;;;;10.80;8.45;;;;;;;17.48;88.92;99261.25;5033319;28;20408;-75
2023/06/19 02:46:14;;;;;;;14.38;9.30;;;;;;;17.45;88.68;99271.31;5031450;28;20033;-75
2023/06/19 02:48:39;;;;;;;14.48;8.88;;;;;;;17.47;88.53;99262.44;5032318;28;20076;-75
2023/06/19 02:51:05;;;;;;;12.27;9.07;;;;;;;17.51;88.61;99268.94;5014184;28;20083;-75
2023/06/19 02:53:30;;;;;;;11.07;9.10;;;;;;;17.55;88.40;99269.78;5033233;28;20091;-75
2023/06/19 02:55:56;;;;;;;12.48;8.80;;;;;;;17.50;88.65;99276.63;5032081;28;20034;-75
2023/06/19 02:58:21;;;;;;;11.88;9.23;;;;;;;17.50;88.48;99275.81;5014526;28;20041;-74
2023/06/19 03:00:47;;;;;;;14.65;8.40;;;;;;;17.46;89.12;99277.78;5014457;28;20484;-74
2023/06/19 03:03:12;;;;;;;17.45;8.45;;;;;;;17.51;88.95;99272.59;5032279;28;20037;-75
2023/06/19 03:05:38;;;;;;;10.95;9.50;;;;;;;17.49;88.84;99274.97;5030340;28;20073;-74
2023/06/19 03:08:04;;;;;;;10.55;8.40;;;;;;;17.54;88.51;99274.66;5029870;28;20408;-75
2023/06/19 03:10:30;;;;;;;11.77;8.75;;;;;;;17.54;88.20;99277.47;5032762;28;20067;-75
2023/06/19 03:12:58;;;;;;;15.23;9.18;;;;;;;17.47;88.67;99273.75;5015058;28;20025;-75
2023/06/19 03:15:23;;;;;;;12.43;8.85;;;;;;;17.51;88.48;99278.25;5014975;28;20076;-75
2023/06/19 03:17:49;;;;;;;21.20;9.57;;;;;;;17.52;88.29;99279.88;5031526;28;20112;-75
2023/06/19 03:20:14;;;;;;;11.98;8.55;;;;;;;17.59;88.25;99269.84;5031981;28;20036;-75
2023/06/19 03:22:41;;;;;;;11.95;8.15;;;;;;;17.63;88.03;99274.31;5029654;28;20495;-75
2023/06/19 03:25:08;;;;;;;13.77;8.50;;;;;;;17.68;88.04;99276.00;5031366;28;20029;-75
2023/06/19 03:27:33;;;;;;;12.50;9.50;;;;;;;17.88;86.97;99284.28;5010680;28;20037;-75
2023/06/19 03:29:59;;;;;;;12.65;8.43;;;;;;;18.00;86.41;99281.16;5032411;28;20048;-75
2023/06/19 03:32:24;;;;;;;11.60;8.32;;;;;;;18.18;85.53;99289.00;5032197;28;20025;-74
2023/06/19 03:34:50;;;;;;;9.07;8.18;;;;;;;18.35;84.81;99291.19;5013506;28;20431;-75
2023/06/19 03:37:17;;;;;;;12.57;8.75;;;;;;;18.48;83.78;99293.72;5030935;28;20026;-77
2023/06/19 03:39:42;;;;;;;12.90;9.23;;;;;;;18.46;83.42;99293.25;5013517;28;20076;-73
2023/06/19 03:42:08;;;;;;;16.40;8.65;;;;;;;18.26;83.90;99281.38;5018608;28;20030;-73
2023/06/19 03:44:33;;;;;;;14.88;9.20;;;;;;;18.11;84.44;99286.94;4992777;28;20504;-73
2023/06/19 03:46:59;;;;;;;13.70;8.18;;;;;;;18.19;84.42;99296.28;5010452;28;20440;-76
2023/06/19 03:49:24;;;;;;;21.70;8.45;;;;;;;18.24;84.51;99301.59;5029771;28;20041;-78
2023/06/19 03:51:50;;;;;;;13.43;7.82;;;;;;;18.27;84.36;99303.66;5010735;28;20065;-78
2023/06/19 03:54:15;;;;;;;18.25;10.13;;;;;;;18.41;83.92;99299.31;5029033;28;20026;-73
2023/06/19 03:56:41;;;;;;;14.57;8.95;;;;;;;18.49;83.08;99301.78;5031369;28;20025;-73
2023/06/19 03:59:07;;;;;;;16.98;7.97;;;;;;;18.52;82.99;99294.53;5030984;28;20506;-73
2023/06/19 04:01:32;;;;;;;13.65;8.65;;;;;;;18.70;81.84;99299.50;5014113;28;20025;-73
2023/06/19 04:03:58;;;;;;;11.43;8.35;;;;;;;18.62;81.63;99299.47;5009973;28;20042;-73
2023/06/19 04:06:24;;;;;;;14.07;8.27;;;;;;;18.63;82.05;99294.59;5010963;28;20026;-73
2023/06/19 04:08:49;;;;;;;12.20;8.73;;;;;;;18.52;82.85;99294.53;5009866;28;20488;-73
2023/06/19 04:11:15;;;;;;;18.20;8.80;;;;;;;18.60;82.61;99301.06;5009045;28;20030;-73
2023/06/19 04:19:30;;;;;;;13.80;8.32;;;;;;;18.71;82.15;99284.94;5019946;28;20053;-79
2023/06/19 04:21:55;;;;;;;17.90;8.55;;;;;;;18.73;81.22;99285.34;5022635;28;20045;-80
2023/06/19 04:24:21;;;;;;;17.65;7.47;;;;;;;18.82;80.21;99281.38;5031504;28;20020;-80
2023/06/19 04:26:46;;;;;;;13.38;7.22;;;;;;;18.85;78.76;99272.91;5031468;28;20056;-80
2023/06/19 04:29:16;;;;;;;13.18;7.90;;;;;;;19.01;78.38;99274.63;5029432;28;20033;-79
2023/06/19 04:31:46;;;;;;;12.43;6.90;;;;;;;19.08;78.21;99275.44;5031844;28;20026;-80
2023/06/19 04:34:14;;;;;;;14.10;7.10;;;;;;;19.25;76.83;99283.63;5028020;28;20029;-79
2023/06/19 04:36:40;;;;;;;12.30;6.88;;;;;;;19.39;76.08;99277.19;5031376;28;20025;-80
2023/06/19 04:39:06;;;;;;;7.72;6.75;;;;;;;19.50;75.10;99273.16;5030493;28;20431;-79
2023/06/19 04:41:32;;;;;;;7.93;7.13;;;;;;;19.63;74.78;99282.13;5031411;28;20040;-79
2023/06/19 04:43:57;;;;;;;15.70;7.00;;;;;;;19.71;74.57;99282.13;5024014;28;20029;-79
2023/06/19 04:46:22;;;;;;;7.97;6.70;;;;;;;19.77;73.91;99275.66;5027428;28;20065;-80
2023/06/19 04:48:51;;;;;;;9.05;6.28;;;;;;;19.85;72.85;99282.19;5026854;28;20036;-80
2023/06/19 04:51:20;;;;;;;9.30;6.47;;;;;;;19.95;73.10;99277.75;5022487;28;20057;-80
2023/06/19 04:53:49;;;;;;;16.20;6.90;;;;;;;20.12;73.32;99283.84;5010863;28;20076;-80
2023/06/19 04:56:15;;;;;;;16.90;6.68;;;;;;;20.19;72.65;99286.69;5035379;28;20553;-80
2023/06/19 04:58:45;;;;;;;18.23;7.55;;;;;;;20.23;72.90;99278.19;5035943;28;20025;-80
2023/06/19 05:01:14;;;;;;;30.85;8.93;;;;;;;20.39;72.17;99277.75;5026314;28;20495;-80
2023/06/19 05:03:41;;;;;;;10.32;6.90;;;;;;;20.49;71.66;99288.28;5030989;28;20100;-80
2023/06/19 05:06:07;;;;;;;29.25;8.20;;;;;;;20.56;71.73;99284.63;5029541;28;20030;-80
2023/06/19 05:08:32;;;;;;;22.48;6.28;;;;;;;20.67;71.41;99284.63;5019242;28;20060;-80
2023/06/19 05:10:57;;;;;;;17.65;7.43;;;;;;;20.71;70.52;99285.41;5035089;28;20025;-80
2023/06/19 05:13:24;;;;;;;16.77;7.60;;;;;;;20.72;70.48;99284.19;5015872;28;20033;-80
2023/06/19 05:15:50;;;;;;;11.23;6.82;;;;;;;20.67;70.25;99295.97;5019647;28;20462;-80
2023/06/19 05:18:16;;;;;;;10.20;6.90;;;;;;;20.77;70.63;99289.47;5024854;28;20037;-72
2023/06/19 05:20:42;;;;;;;10.98;7.32;;;;;;;20.85;69.58;99285.41;5031725;28;20033;-75
2023/06/19 05:23:07;;;;;;;43.60;6.85;;;;;;;20.99;69.19;99283.72;5023997;28;20099;-75
2023/06/19 05:25:33;;;;;;;27.20;8.60;;;;;;;21.11;69.00;99280.44;5030666;28;20041;-76
2023/06/19 05:27:58;;;;;;;16.73;7.28;;;;;;;21.29;68.56;99282.41;5034023;28;20033;-74
2023/06/19 05:30:23;;;;;;;12.18;6.47;;;;;;;21.52;68.68;99284.72;5029649;28;20022;-77
2023/06/19 05:32:49;;;;;;;9.13;6.28;;;;;;;21.76;67.22;99289.94;5016401;28;20026;-74
2023/06/19 05:35:14;;;;;;;10.55;6.28;;;;;;;21.99;66.83;99287.31;5030975;28;20495;-75
2023/06/19 05:37:42;;;;;;;14.43;7.38;;;;;;;22.19;66.44;99288.81;5034419;28;20052;-82
2023/06/19 05:40:09;;;;;;;9.95;6.70;;;;;;;22.26;64.47;99286.69;5030659;28;20033;-81
2023/06/19 05:42:35;;;;;;;10.57;6.70;;;;;;;22.35;65.06;99285.41;5027223;28;20022;-79
2023/06/19 05:45:04;;;;;;;8.68;6.40;;;;;;;22.23;64.16;99292.41;5020425;28;20029;-75
2023/06/19 05:47:31;;;;;;;15.38;6.88;;;;;;;22.48;64.87;99294.25;5020289;28;20033;-82
2023/06/19 05:49:59;;;;;;;19.17;7.63;;;;;;;22.58;63.50;99279.13;5012300;28;20411;-77
2023/06/19 05:52:25;;;;;;;11.75;6.00;;;;;;;22.89;63.50;99290.63;5026036;28;20033;-79
2023/06/19 05:54:52;;;;;;;7.90;5.53;;;;;;;22.56;63.23;99279.56;5031364;28;20032;-78
2023/06/19 05:57:20;;;;;;;10.18;5.68;;;;;;;22.89;62.91;99286.94;5043428;28;20083;-81
2023/06/19 05:59:47;;;;;;;13.55;6.30;;;;;;;23.07;62.85;99295.28;5018203;28;20025;-75
2023/06/19 06:02:12;;;;;;;8.00;5.95;;;;;;;23.28;62.93;99288.53;5014338;28;20025;-81
2023/06/19 06:04:38;;;;;;;13.32;6.13;;;;;;;23.45;61.94;99288.75;5028961;28;20108;-82
2023/06/19 06:07:03;;;;;;;8.82;5.80;;;;;;;23.58;60.91;99289.81;5025968;28;20045;-81
2023/06/19 06:09:29;;;;;;;16.05;7.40;;;;;;;23.54;61.64;99277.63;5018217;28;20049;-75
2023/06/19 06:11:54;;;;;;;10.80;5.97;;;;;;;23.56;60.23;99290.22;5021543;28;20465;-82
2023/06/19 06:14:20;;;;;;;8.82;5.65;;;;;;;23.73;60.46;99296.13;5014237;28;20022;-82
2023/06/19 06:16:45;;;;;;;9.00;5.82;;;;;;;23.70;58.93;99296.97;5016560;28;20033;-82
2023/06/19 06:19:11;;;;;;;7.43;5.93;;;;;;;23.67;57.70;99292.94;5030850;28;20427;-76
2023/06/19 06:21:36;;;;;;;11.77;5.55;;;;;;;23.94;56.94;99295.00;5027141;28;20041;-77
2023/06/19 06:24:02;;;;;;;12.00;5.93;;;;;;;23.87;56.48;99292.22;5031688;28;20120;-79
2023/06/19 06:26:28;;;;;;;9.43;5.07;;;;;;;24.07;55.66;99300.13;5022419;28;20033;-78
2023/06/19 06:28:55;;;;;;;10.02;5.80;;;;;;;24.17;56.51;99293.44;5037128;28;20457;-77
2023/06/19 06:31:22;;;;;;;7.10;5.18;;;;;;;24.39;55.49;99293.88;5024781;28;20025;-81
2023/06/19 06:33:48;;;;;;;12.77;5.70;;;;;;;24.25;53.18;99294.13;5027194;28;20188;-80
2023/06/19 06:36:15;;;;;;;14.65;5.90;;;;;;;24.32;52.61;99291.16;5047147;28;20473;-83
2023/06/19 06:38:40;;;;;;;9.73;5.32;;;;;;;24.07;53.15;99283.00;5015939;28;20029;-79
2023/06/19 06:41:06;;;;;;;8.35;4.95;;;;;;;24.13;52.81;99298.38;5040912;28;20447;-79
2023/06/19 06:43:32;;;;;;;9.95;5.32;;;;;;;24.31;52.95;99292.38;5053771;28;20033;-79
2023/06/19 06:45:57;;;;;;;8.93;5.57;;;;;;;24.30;52.25;99295.69;5024069;28;20055;-80
2023/06/19 06:48:23;;;;;;;10.77;5.13;;;;;;;24.44;51.56;99298.28;5019786;28;20083;-78
2023/06/19 06:50:48;;;;;;;5.30;4.63;;;;;;;24.44;51.40;99289.72;5019788;28;20410;-82
2023/06/19 06:53:13;;;;;;;10.73;6.25;;;;;;;24.46;51.80;99278.66;5038844;28;20029;-83
2023/06/19 06:55:39;;;;;;;5.57;5.07;;;;;;;24.49;51.25;99288.41;5016486;28;20121;-81
2023/06/19 06:58:05;;;;;;;7.47;5.20;;;;;;;24.64;50.58;99286.91;5015374;28;20047;-82
2023/06/19 07:00:30;;;;;;;11.32;5.80;;;;;;;24.65;51.41;99291.38;5024891;28;20020;-80
2023/06/19 07:02:56;;;;;;;12.27;5.45;;;;;;;24.73;51.14;99296.97;5024750;28;20079;-80
2023/06/19 07:05:22;;;;;;;8.77;5.28;;;;;;;24.71;51.08;99288.81;5023363;28;20029;-79
2023/06/19 07:07:47;;;;;;;10.07;5.22;;;;;;;24.86;49.96;99291.44;5017384;28;20021;-80
2023/06/19 07:10:13;;;;;;;12.68;4.90;;;;;;;25.01;49.24;99298.53;5033580;28;20029;-82
2023/06/19 07:12:46;;;;;;;6.00;5.40;;;;;;;25.14;49.33;99297.88;5020512;28;20025;-85
2023/06/19 07:15:12;;;;;;;10.15;5.20;;;;;;;25.21;49.25;99295.66;5030377;28;20559;-82
2023/06/19 07:17:37;;;;;;;9.75;5.90;;;;;;;24.78;50.20;99297.31;5043904;28;20060;-74
2023/06/19 07:20:04;;;;;;;10.75;5.90;;;;;;;25.19;50.96;99300.19;5039774;28;20032;-77
2023/06/19 07:22:29;;;;;;;12.68;5.70;;;;;;;25.50;49.66;99300.78;5042459;28;20057;-77
2023/06/19 07:24:55;;;;;;;6.93;5.13;;;;;;;25.70;48.99;99302.00;5043787;28;20202;-79
2023/06/19 07:27:20;;;;;;;7.40;5.15;;;;;;;25.78;49.55;99303.47;5032242;28;20022;-81
2023/06/19 07:29:46;;;;;;;6.78;4.93;;;;;;;25.60;48.99;99290.38;5016679;28;21389;-81
2023/06/19 07:32:11;;;;;;;7.32;5.50;;;;;;;25.54;47.34;99302.78;5034474;28;20033;-80
2023/06/19 07:34:37;;;;;;;7.18;5.47;;;;;;;25.31;47.77;99301.59;5039551;28;20180;-78
2023/06/19 07:37:03;;;;;;;7.57;4.97;;;;;;;25.60;47.17;99298.97;5036582;28;20051;-80
2023/06/19 07:39:28;;;;;;;18.75;6.20;;;;;;;25.83;46.70;99296.41;5050414;28;20063;-77
2023/06/19 07:41:54;;;;;;;16.85;6.20;;;;;;;25.84;45.95;99290.25;5042042;28;20075;-79
2023/06/19 07:44:20;;;;;;;10.60;5.50;;;;;;;25.92;45.65;99305.22;5032362;28;20079;-75
2023/06/19 07:46:46;;;;;;;5.85;5.10;;;;;;;25.59;45.33;99297.34;5010071;28;20041;-78
2023/06/19 07:49:12;;;;;;;5.65;5.10;;;;;;;25.94;44.77;99299.84;5019288;28;20495;-76
2023/06/19 07:51:37;;;;;;;5.53;4.95;;;;;;;26.13;44.71;99303.09;5033505;28;20044;-74
2023/06/19 07:54:03;;;;;;;5.70;5.15;;;;;;;26.25;43.32;99302.41;5040265;28;20036;-78
2023/06/19 07:56:28;;;;;;;8.25;5.80;;;;;;;26.05;42.88;99311.84;5020454;28;20063;-76
2023/06/19 07:58:54;;;;;;;6.63;5.65;;;;;;;26.17;42.89;99298.84;5032050;28;20040;-80
2023/06/19 08:01:19;;;;;;;7.10;5.03;;;;;;;26.20;43.42;99308.66;5021477;28;20059;-77
2023/06/19 08:03:45;;;;;;;6.00;5.40;;;;;;;26.30;44.48;99298.19;5018828;28;20059;-78
2023/06/19 08:06:11;;;;;;;9.73;6.82;;;;;;;26.33;42.47;99312.44;5045677;28;20036;-81
2023/06/19 08:08:36;;;;;;;10.25;5.50;;;;;;;26.53;41.37;99310.72;5043717;28;20559;-76
2023/06/19 08:11:02;;;;;;;8.27;6.00;;;;;;;26.62;41.41;99305.16;5032867;28;20373;-81
2023/06/19 08:13:27;;;;;;;20.90;5.82;;;;;;;26.83;41.29;99317.31;5047454;28;20029;-76
2023/06/19 08:15:53;;;;;;;8.32;5.53;;;;;;;26.94;42.18;99317.03;5046682;28;20138;-77
2023/06/19 08:18:18;;;;;;;7.32;5.40;;;;;;;27.09;41.30;99315.41;5041210;28;20047;-79
2023/06/19 08:20:44;;;;;;;8.18;5.35;;;;;;;27.05;40.71;99317.56;5030100;28;20223;-76
2023/06/19 08:23:09;;;;;;;6.50;4.95;;;;;;;26.89;40.28;99319.22;5011367;28;20026;-81
2023/06/19 08:25:35;;;;;;;7.38;4.97;;;;;;;26.92;42.49;99317.50;5021131;28;20504;-79
2023/06/19 08:28:00;;;;;;;6.00;5.38;;;;;;;27.15;42.59;99318.50;5034520;28;20025;-75
2023/06/19 08:30:26;;;;;;;8.35;5.88;;;;;;;27.21;42.11;99308.09;5041709;28;20025;-74
2023/06/19 08:32:51;;;;;;;5.90;5.30;;;;;;;27.43;42.54;99295.97;5036868;28;20512;-74
2023/06/19 08:35:16;;;;;;;8.82;4.65;;;;;;;27.25;41.02;99300.16;5016257;28;20025;-76
2023/06/19 08:37:43;;;;;;;8.20;5.60;;;;;;;27.09;42.54;99308.84;5020468;28;20060;-76
2023/06/19 08:40:10;;;;;;;18.67;5.43;;;;;;;27.17;41.96;99313.94;5020586;28;20041;-75
2023/06/19 08:42:36;;;;;;;10.23;5.60;;;;;;;27.35;41.99;99301.13;5024334;28;20487;-82
2023/06/19 08:45:03;;;;;;;6.28;5.22;;;;;;;27.77;42.02;99306.06;5038411;28;20075;-79
2023/06/19 08:47:33;;;;;;;7.82;4.82;;;;;;;27.36;40.70;99304.78;5018655;28;20029;-80
2023/06/19 08:49:59;;;;;;;10.38;5.53;;;;;;;27.32;41.25;99305.72;5042356;28;20475;-80
2023/06/19 08:52:25;;;;;;;9.95;4.95;;;;;;;27.51;40.86;99300.22;5031391;28;20043;-79
2023/06/19 08:54:50;;;;;;;9.75;5.45;;;;;;;27.97;40.72;99296.41;5042216;28;20053;-83
2023/06/19 08:57:16;;;;;;;7.82;5.30;;;;;;;27.88;40.34;99308.59;5042708;28;20412;-81
2023/06/19 08:59:49;;;;;;;9.38;5.65;;;;;;;28.12;39.43;99299.63;5042362;28;20032;-82
2023/06/19 09:02:14;;;;;;;6.85;5.75;;;;;;;27.96;39.07;99295.63;5040216;28;20107;-80
2023/06/19 09:04:40;;;;;;;5.28;4.78;;;;;;;27.45;40.08;99299.19;5017732;28;20083;-81
2023/06/19 09:07:08;;;;;;;5.97;4.85;;;;;;;27.94;40.37;99303.91;5011138;28;20431;-81
2023/06/19 09:09:33;;;;;;;5.22;4.72;;;;;;;28.05;39.00;99296.97;5025688;28;20653;-79
2023/06/19 09:12:07;;;;;;;6.63;5.53;;;;;;;28.14;39.25;99295.03;5031809;28;20025;-79
2023/06/19 09:14:32;;;;;;;6.25;4.97;;;;;;;28.13;38.95;99292.59;5012639;28;20029;-79
2023/06/19 09:16:58;;;;;;;8.35;5.78;;;;;;;28.41;39.51;99281.44;5046821;28;20048;-79
2023/06/19 09:19:23;;;;;;;7.63;5.03;;;;;;;28.45;39.33;99285.00;5030129;28;20374;-78
2023/06/19 09:21:49;;;;;;;6.28;4.75;;;;;;;28.61;39.27;99281.19;5017346;28;20118;-83
2023/06/19 09:24:15;;;;;;;6.10;5.50;;;;;;;28.47;38.43;99288.22;5039022;28;20029;-80
2023/06/19 09:26:40;;;;;;;7.90;5.47;;;;;;;28.43;40.00;99282.59;5030030;28;20099;-83
2023/06/19 09:29:15;;;;;;;10.90;4.90;;;;;;;28.61;39.03;99275.44;5028315;28;20033;-85
2023/06/19 09:31:41;;;;;;;5.75;4.72;;;;;;;28.93;37.32;99279.22;5046489;28;20024;-79
2023/06/19 09:34:07;;;;;;;7.55;5.40;;;;;;;28.98;36.36;99287.28;5016256;28;20022;-79
2023/06/19 09:36:34;;;;;;;9.52;4.88;;;;;;;28.97;36.03;99287.75;5031422;28;20412;-84
2023/06/19 09:39:02;;;;;;;5.32;4.65;;;;;;;28.97;35.58;99281.97;5009928;28;20128;-78
2023/06/19 09:41:30;;;;;;;7.75;5.10;;;;;;;29.32;36.62;99281.09;5020766;28;20033;-85
2023/06/19 09:43:59;;;;;;;6.65;5.15;;;;;;;29.81;34.96;99282.53;5024463;28;20562;-77
2023/06/19 09:46:30;;;;;;;6.22;4.88;;;;;;;30.05;34.91;99267.63;5010141;28;20506;-80
2023/06/19 09:49:01;;;;;;;6.60;4.55;;;;;;;29.31;34.76;99274.56;5040022;28;20083;-77
2023/06/19 09:51:32;;;;;;;6.85;5.00;;;;;;;29.04;36.73;99270.22;5012013;28;20597;-76
2023/06/19 09:54:00;;;;;;;8.18;4.85;;;;;;;28.40;38.01;99274.06;5032411;28;20091;-77
2023/06/19 09:56:27;;;;;;;6.07;4.88;;;;;;;29.13;36.17;99266.59;5042621;28;20060;-80
2023/06/19 09:58:56;;;;;;;5.72;5.05;;;;;;;29.01;35.75;99259.63;5014738;28;20473;-86
2023/06/19 10:01:23;;;;;;;5.25;4.45;;;;;;;29.33;35.04;99256.81;5030720;28;20029;-86
2023/06/19 10:03:48;;;;;;;5.10;4.60;;;;;;;29.80;34.47;99252.91;5026152;28;20064;-82
2023/06/19 10:06:19;;;;;;;7.18;5.55;;;;;;;29.68;34.74;99256.69;5026044;28;20049;-84
2023/06/19 10:08:45;;;;;;;7.38;4.65;;;;;;;29.54;35.06;99246.56;5031985;28;20431;-84
2023/06/19 10:11:11;;;;;;;5.50;5.00;;;;;;;29.34;34.70;99244.81;5033660;28;20415;-85
2023/06/19 10:13:39;;;;;;;5.28;4.32;;;;;;;29.88;35.97;99249.75;5033231;28;20045;-85
2023/06/19 10:16:05;;;;;;;8.23;4.72;;;;;;;29.44;35.27;99228.41;5017023;28;20478;-81
2023/06/19 10:18:46;;;;;;;6.13;4.30;;;;;;;29.50;34.45;99246.69;5027589;28;20056;-81
2023/06/19 10:21:19;;;;;;;5.97;4.45;;;;;;;29.97;34.37;99241.13;5028738;28;20076;-81
2023/06/19 10:23:57;;;;;;;5.20;4.45;;;;;;;29.90;34.39;99250.06;5051605;28;20028;-83
2023/06/19 10:26:33;;;;;;;6.68;5.32;;;;;;;30.51;33.57;99238.06;5026512;28;20055;-80
2023/06/19 10:29:00;;;;;;;7.78;4.85;;;;;;;30.33;33.26;99219.47;5035842;28;20055;-81
2023/06/19 10:31:28;;;;;;;6.82;4.97;;;;;;;30.18;33.26;99235.78;5016707;28;20423;-82
2023/06/19 10:33:54;;;;;;;6.40;4.75;;;;;;;30.13;33.02;99228.56;5027733;28;20021;-82
2023/06/19 10:36:25;;;;;;;5.20;4.22;;;;;;;29.45;34.15;99229.22;5033450;28;20025;-82
2023/06/19 10:38:50;;;;;;;5.43;3.92;;;;;;;29.39;33.58;99229.81;5043589;28;20049;-81
2023/06/19 10:41:17;;;;;;;6.68;4.30;;;;;;;30.25;33.64;99229.69;5015579;28;20056;-77
2023/06/19 10:43:59;;;;;;;7.95;3.83;;;;;;;30.72;32.72;99227.69;5042029;28;20036;-81
2023/06/19 10:46:30;;;;;;;7.53;4.45;;;;;;;30.68;29.98;99230.75;5046335;28;20029;-82
2023/06/19 10:49:00;;;;;;;9.55;4.38;;;;;;;30.50;30.35;99222.03;5038431;28;20082;-84
2023/06/19 10:51:29;;;;;;;12.40;4.15;;;;;;;30.04;30.82;99229.31;5020817;28;20033;-83
2023/06/19 10:53:55;;;;;;;7.13;3.60;;;;;;;30.22;30.50;99227.78;5031587;28;20339;-82
2023/06/19 10:56:22;;;;;;;5.82;4.03;;;;;;;30.14;30.46;99221.50;5016500;28;20025;-82
2023/06/19 10:58:48;;;;;;;3.85;3.45;;;;;;;30.20;30.85;99221.69;5018065;28;20515;-81
2023/06/19 11:01:14;;;;;;;6.18;3.28;;;;;;;30.06;30.43;99212.38;5039505;28;20024;-81
2023/06/19 11:03:39;;;;;;;9.80;3.70;;;;;;;30.09;31.32;99211.41;5022641;28;20028;-82
2023/06/19 11:06:05;;;;;;;6.47;4.63;;;;;;;30.47;31.35;99215.16;5041875;28;20411;-82
2023/06/19 11:08:30;;;;;;;5.65;4.72;;;;;;;30.55;31.06;99209.88;5045796;28;20024;-82
2023/06/19 11:10:56;;;;;;;12.50;4.30;;;;;;;30.30;32.57;99197.34;5047039;28;20036;-81
2023/06/19 11:13:21;;;;;;;5.70;3.90;;;;;;;29.97;33.72;99197.91;5044006;28;20063;-81
2023/06/19 11:15:49;;;;;;;7.68;4.30;;;;;;;30.28;33.66;99199.91;5041249;28;20103;-82
2023/06/19 11:18:16;;;;;;;5.57;4.57;;;;;;;30.44;32.96;99201.69;5047965;28;20097;-82
2023/06/19 11:20:46;;;;;;;4.47;3.92;;;;;;;30.72;32.50;99192.25;5029322;28;20127;-82
2023/06/19 11:23:12;;;;;;;;;;;;;;;30.01;32.66;99209.28;5046263;28;20060;-83
2023/06/19 11:25:39;;;;;;;6.10;3.90;;;;;;;30.33;32.55;99207.13;5043882;28;20370;-83
2023/06/19 11:28:10;;;;;;;7.85;4.90;;;;;;;30.02;32.10;99197.25;5027823;28;20033;-83
2023/06/19 11:30:36;;;;;;;9.02;4.93;;;;;;;30.45;31.68;99194.63;5047910;28;20032;-84